createdAt,value
2024-02-28T00:00:12.859Z,23.00
2024-02-28T00:03:05.148Z,23.00
2024-02-28T00:05:37.071Z,23.60
2024-02-28T00:08:09.720Z,23.10
2024-02-28T00:10:41.649Z,21.80
2024-02-28T00:13:13.833Z,22.40
2024-02-28T00:15:46.315Z,22.20
2024-02-28T00:18:18.547Z,22.80
2024-02-28T00:20:50.581Z,22.60
2024-02-28T00:23:22.567Z,22.20
2024-02-28T00:25:55.155Z,22.40
2024-02-28T00:28:27.064Z,20.90
2024-02-28T00:30:58.999Z,21.80
2024-02-28T00:33:31.242Z,23.10
2024-02-28T00:36:03.219Z,22.40
2024-02-28T00:38:35.227Z,24.50
2024-02-28T00:41:07.218Z,23.40
2024-02-28T00:43:39.129Z,25.40
2024-02-28T00:46:13.456Z,24.10
2024-02-28T00:48:46.143Z,23.60
2024-02-28T00:51:18.646Z,23.80
2024-02-28T00:53:50.549Z,24.50
2024-02-28T00:56:22.441Z,26.10
2024-02-28T00:58:54.842Z,27.40
2024-02-28T01:01:26.844Z,26.70
2024-02-28T01:03:58.853Z,27.10
2024-02-28T01:06:30.959Z,26.70
2024-02-28T01:09:05.180Z,27.70
2024-02-28T01:11:37.792Z,29.50
2024-02-28T01:14:10.181Z,28.30
2024-02-28T01:16:42.238Z,28.30
2024-02-28T01:19:14.231Z,27.60
2024-02-28T01:21:46.781Z,27.50
2024-02-28T01:24:19.257Z,29.60
2024-02-28T01:26:51.138Z,30.70
2024-02-28T01:29:22.953Z,31.90
2024-02-28T01:31:54.842Z,30.70
2024-02-28T01:34:26.827Z,31.40
2024-02-28T01:36:58.752Z,30.80
2024-02-28T01:39:30.831Z,32.30
2024-02-28T01:42:03.096Z,33.50
2024-02-28T01:44:37.714Z,32.40
2024-02-28T01:47:09.815Z,32.40
2024-02-28T01:49:42.739Z,31.80
2024-02-28T01:52:16.197Z,31.70
2024-02-28T01:54:48.203Z,33.90
2024-02-28T01:57:20.781Z,33.30
2024-02-28T01:59:52.923Z,31.00
2024-02-28T02:02:25.429Z,30.30
2024-02-28T02:04:59.090Z,31.50
2024-02-28T02:07:31.426Z,30.40
2024-02-28T02:10:03.416Z,34.30
2024-02-28T02:12:35.343Z,32.10
2024-02-28T02:15:09.402Z,31.00
2024-02-28T02:17:41.403Z,32.80
2024-02-28T02:20:16.814Z,29.60
2024-02-28T02:22:49.022Z,33.70
2024-02-28T02:25:21.102Z,32.10
2024-02-28T02:27:53.142Z,35.10
2024-02-28T02:30:25.150Z,32.60
2024-02-28T02:32:57.129Z,31.30
2024-02-28T02:35:29.178Z,31.20
2024-02-28T02:38:01.193Z,32.90
2024-02-28T02:40:33.248Z,32.80
2024-02-28T02:43:05.370Z,35.90
2024-02-28T02:45:37.457Z,33.20
2024-02-28T02:48:10.633Z,33.50
2024-02-28T02:50:42.825Z,32.30
2024-02-28T02:53:15.548Z,31.50
2024-02-28T02:55:47.517Z,32.80
2024-02-28T02:58:19.803Z,34.30
2024-02-28T03:00:51.999Z,35.20
2024-02-28T03:03:24.464Z,32.70
2024-02-28T03:05:56.858Z,30.90
2024-02-28T03:08:28.723Z,32.70
2024-02-28T03:11:00.894Z,35.50
2024-02-28T03:13:32.916Z,35.40
2024-02-28T03:16:07.349Z,33.90
2024-02-28T03:18:40.025Z,34.10
2024-02-28T03:21:12.121Z,32.90
2024-02-28T03:23:44.456Z,36.10
2024-02-28T03:26:17.215Z,37.50
2024-02-28T03:28:49.189Z,36.50
2024-02-28T03:31:21.105Z,35.30
2024-02-28T03:33:53.031Z,35.20
2024-02-28T03:36:25.020Z,37.00
2024-02-28T03:38:56.950Z,37.90
2024-02-28T03:41:29.212Z,38.60
2024-02-28T03:44:01.088Z,37.10
2024-02-28T03:46:33.009Z,34.70
2024-02-28T03:49:05.082Z,37.00
2024-02-28T03:51:43.071Z,39.40
2024-02-28T03:54:15.144Z,38.20
2024-02-28T03:56:47.040Z,42.20
2024-02-28T03:59:19.059Z,37.60
2024-02-28T04:01:51.322Z,37.50
2024-02-28T04:04:23.178Z,36.50
2024-02-28T04:06:55.982Z,36.70
2024-02-28T04:09:28.054Z,38.30
2024-02-28T04:12:00.103Z,40.30
2024-02-28T04:14:32.101Z,41.00
2024-02-28T04:17:04.064Z,39.10
2024-02-28T04:19:38.724Z,38.10
2024-02-28T04:22:10.771Z,37.60
2024-02-28T04:24:42.750Z,41.00
2024-02-28T04:27:14.738Z,39.50
2024-02-28T04:29:46.747Z,43.40
2024-02-28T04:32:18.783Z,38.70
2024-02-28T04:34:50.766Z,38.00
2024-02-28T04:37:23.184Z,36.30
2024-02-28T04:39:55.196Z,38.60
2024-02-28T04:42:27.412Z,41.20
2024-02-28T04:44:59.361Z,41.20
2024-02-28T04:47:36.716Z,40.10
2024-02-28T04:50:16.131Z,38.70
2024-02-28T04:52:48.237Z,39.20
2024-02-28T04:55:20.502Z,41.10
2024-02-28T04:57:52.658Z,41.10
2024-02-28T05:00:24.790Z,41.40
2024-02-28T05:02:57.005Z,37.00
2024-02-28T05:05:29.019Z,37.30
2024-02-28T05:08:00.953Z,36.40
2024-02-28T05:10:35.503Z,38.20
2024-02-28T05:13:07.958Z,38.60
2024-02-28T05:15:39.980Z,40.00
2024-02-28T05:18:12.099Z,40.40
2024-02-28T05:20:44.365Z,40.20
2024-02-28T05:23:16.363Z,40.10
2024-02-28T05:25:48.758Z,37.70
2024-02-28T05:28:20.741Z,38.10
2024-02-28T05:30:52.975Z,38.30
2024-02-28T05:33:25.101Z,41.80
2024-02-28T05:35:57.087Z,41.20
2024-02-28T05:38:29.023Z,38.40
2024-02-28T05:41:00.915Z,37.60
2024-02-28T05:43:34.493Z,37.90
2024-02-28T05:46:06.651Z,36.30
2024-02-28T05:48:38.627Z,37.70
2024-02-28T05:51:10.667Z,40.10
2024-02-28T05:53:43.809Z,41.60
2024-02-28T05:56:16.342Z,39.60
2024-02-28T05:58:49.249Z,39.30
2024-02-28T06:01:21.648Z,39.90
2024-02-28T06:03:54.201Z,41.40
2024-02-28T06:06:27.062Z,41.10
2024-02-28T06:08:59.101Z,40.10
2024-02-28T06:11:31.503Z,38.10
2024-02-28T06:14:05.221Z,37.50
2024-02-28T06:16:37.220Z,40.40
2024-02-28T06:19:09.186Z,41.20
2024-02-28T06:21:41.161Z,40.90
2024-02-28T06:24:13.311Z,38.60
2024-02-28T06:26:48.365Z,38.10
2024-02-28T06:29:23.405Z,37.90
2024-02-28T06:31:56.682Z,39.90
2024-02-28T06:34:28.719Z,41.70
2024-02-28T06:37:00.738Z,40.20
2024-02-28T06:39:33.001Z,39.30
2024-02-28T06:42:05.362Z,38.80
2024-02-28T06:44:37.381Z,39.60
2024-02-28T06:47:10.316Z,40.20
2024-02-28T06:49:42.322Z,41.80
2024-02-28T06:52:14.352Z,40.80
2024-02-28T06:54:46.446Z,38.10
2024-02-28T06:57:18.639Z,37.10
2024-02-28T06:59:50.621Z,38.70
2024-02-28T07:02:22.735Z,42.20
2024-02-28T07:04:54.692Z,41.60
2024-02-28T07:07:26.557Z,38.50
2024-02-28T07:09:58.650Z,37.80
2024-02-28T07:12:30.742Z,37.00
2024-02-28T07:15:02.778Z,38.10
2024-02-28T07:17:35.337Z,38.50
2024-02-28T07:20:09.769Z,39.50
2024-02-28T07:22:43.885Z,36.50
2024-02-28T07:25:16.067Z,38.50
2024-02-28T07:27:48.096Z,36.50
2024-02-28T07:30:21.053Z,37.90
2024-02-28T07:32:54.162Z,36.70
2024-02-28T07:35:26.398Z,40.30
2024-02-28T07:37:59.025Z,36.40
2024-02-28T07:40:31.335Z,37.80
2024-02-28T07:43:03.575Z,37.60
2024-02-28T07:45:35.650Z,36.80
2024-02-28T07:48:09.066Z,38.90
2024-02-28T07:50:43.286Z,36.20
2024-02-28T07:53:17.024Z,35.20
2024-02-28T07:55:49.013Z,34.70
2024-02-28T07:58:21.881Z,35.50
2024-02-28T08:00:54.705Z,37.00
2024-02-28T08:03:26.800Z,36.80
2024-02-28T08:05:59.427Z,38.10
2024-02-28T08:08:31.605Z,35.00
2024-02-28T08:11:04.659Z,34.40
2024-02-28T08:13:36.727Z,34.50
2024-02-28T08:16:10.409Z,37.00
2024-02-28T08:18:42.469Z,37.20
2024-02-28T08:21:14.480Z,38.30
2024-02-28T08:23:46.492Z,35.20
2024-02-28T08:26:18.766Z,33.60
2024-02-28T08:28:50.784Z,32.30
2024-02-28T08:31:23.156Z,33.70
2024-02-28T08:33:56.860Z,34.80
2024-02-28T08:36:29.371Z,35.60
2024-02-28T08:39:01.321Z,31.60
2024-02-28T08:41:33.332Z,31.50
2024-02-28T08:44:05.524Z,30.50
2024-02-28T08:46:37.612Z,33.30
2024-02-28T08:49:10.056Z,33.50
2024-02-28T08:51:42.779Z,33.20
2024-02-28T08:54:14.858Z,31.90
2024-02-28T08:56:53.583Z,32.70
2024-02-28T08:59:29.399Z,30.80
2024-02-28T09:02:01.379Z,32.30
2024-02-28T09:04:33.470Z,32.10
2024-02-28T09:07:05.858Z,32.10
2024-02-28T09:09:39.413Z,28.90
2024-02-28T09:12:12.007Z,29.50
2024-02-28T09:14:45.597Z,30.20
2024-02-28T09:17:17.651Z,32.40
2024-02-28T09:19:49.651Z,29.20
2024-02-28T09:22:22.788Z,31.00
2024-02-28T09:24:54.927Z,29.50
2024-02-28T09:27:27.386Z,32.80
2024-02-28T09:29:59.425Z,31.90
2024-02-28T09:32:31.476Z,29.80
2024-02-28T09:35:04.610Z,29.70
2024-02-28T09:37:36.839Z,33.00
2024-02-28T09:40:13.710Z,30.20
2024-02-28T09:42:48.715Z,30.70
2024-02-28T09:45:22.544Z,29.90
2024-02-28T09:47:54.767Z,29.90
2024-02-28T09:50:27.927Z,31.20
2024-02-28T09:53:09.469Z,31.10
2024-02-28T09:55:43.111Z,30.00
2024-02-28T09:58:15.170Z,30.30
2024-02-28T10:00:49.080Z,31.60
2024-02-28T10:03:24.499Z,34.20
2024-02-28T10:05:56.749Z,33.20
2024-02-28T10:08:30.396Z,31.80
2024-02-28T10:11:02.309Z,32.80
2024-02-28T10:13:34.332Z,32.50
2024-02-28T10:16:08.891Z,33.00
2024-02-28T10:18:40.988Z,31.70
2024-02-28T10:21:13.775Z,33.00
2024-02-28T10:23:47.265Z,32.70
2024-02-28T10:26:19.861Z,33.90
2024-02-28T10:28:53.444Z,32.30
2024-02-28T10:31:26.253Z,32.00
2024-02-28T10:33:58.840Z,32.70
2024-02-28T10:36:34.799Z,34.10
2024-02-28T10:39:08.180Z,32.60
2024-02-28T10:41:41.847Z,33.20
2024-02-28T10:44:14.856Z,32.90
2024-02-28T10:46:51.471Z,33.60
2024-02-28T10:49:23.477Z,33.60
2024-02-28T10:51:58.899Z,31.60
2024-02-28T10:54:33.737Z,33.20
2024-02-28T10:57:07.763Z,32.50
2024-02-28T10:59:42.671Z,32.60
2024-02-28T11:02:15.200Z,34.00
2024-02-28T11:04:47.595Z,34.00
2024-02-28T11:07:24.688Z,35.40
2024-02-28T11:09:59.024Z,37.20
2024-02-28T11:12:32.060Z,32.90
2024-02-28T11:15:07.584Z,34.10
2024-02-28T11:17:39.654Z,33.70
2024-02-28T11:20:19.101Z,34.10
2024-02-28T11:22:59.002Z,36.60
2024-02-28T11:25:31.015Z,37.90
2024-02-28T11:28:03.414Z,39.70
2024-02-28T11:30:35.482Z,40.40
2024-02-28T11:33:09.919Z,45.00
2024-02-28T11:35:42.686Z,45.30
2024-02-28T11:38:16.202Z,44.00
2024-02-28T11:40:53.470Z,43.30
2024-02-28T11:43:27.012Z,43.40
2024-02-28T11:45:59.238Z,43.00
2024-02-28T11:48:32.322Z,45.00
2024-02-28T11:51:04.738Z,44.50
2024-02-28T11:53:36.856Z,38.00
2024-02-28T11:56:10.311Z,39.60
2024-02-28T11:58:53.423Z,40.10
2024-02-28T12:01:39.801Z,41.40
2024-02-28T12:04:12.427Z,43.40
2024-02-28T12:06:45.092Z,38.80
2024-02-28T12:09:21.868Z,36.70
2024-02-28T12:12:05.101Z,38.90
2024-02-28T12:14:40.658Z,37.90
2024-02-28T12:17:13.269Z,35.50
2024-02-28T12:19:45.609Z,34.90
2024-02-28T12:22:18.043Z,36.10
2024-02-28T12:24:49.985Z,37.30
2024-02-28T12:27:22.112Z,37.50
2024-02-28T12:29:54.161Z,38.40
2024-02-28T12:32:26.195Z,33.80
2024-02-28T12:34:58.236Z,34.20
2024-02-28T12:37:30.726Z,33.30
2024-02-28T12:40:05.987Z,34.30
2024-02-28T12:42:41.110Z,34.70
2024-02-28T12:45:13.672Z,35.90
2024-02-28T12:47:47.645Z,33.70
2024-02-28T12:50:22.936Z,32.00
2024-02-28T12:52:55.397Z,31.20
2024-02-28T12:55:27.403Z,32.90
2024-02-28T12:58:01.038Z,31.70
2024-02-28T13:00:33.267Z,32.40
2024-02-28T13:03:06.195Z,32.70
2024-02-28T13:05:38.527Z,30.00
2024-02-28T13:08:10.826Z,29.80
2024-02-28T13:10:43.245Z,30.10
2024-02-28T13:13:15.449Z,29.90
2024-02-28T13:15:47.520Z,29.60
2024-02-28T13:18:20.382Z,27.50
2024-02-28T13:20:52.671Z,25.40
2024-02-28T13:23:24.667Z,25.70
2024-02-28T13:25:56.861Z,26.20
2024-02-28T13:28:30.859Z,25.40
2024-02-28T13:31:05.342Z,25.60
2024-02-28T13:33:38.262Z,23.90
2024-02-28T13:36:11.043Z,23.80
2024-02-28T13:38:43.069Z,23.20
2024-02-28T13:41:15.591Z,24.00
2024-02-28T13:43:47.453Z,25.20
2024-02-28T13:46:20.611Z,24.40
2024-02-28T13:48:52.737Z,23.60
2024-02-28T13:51:25.555Z,23.90
2024-02-28T13:53:57.732Z,22.30
2024-02-28T13:56:31.924Z,23.70
2024-02-28T13:59:03.835Z,23.40
2024-02-28T14:01:36.124Z,22.10
2024-02-28T14:04:08.684Z,21.30
2024-02-28T14:06:40.917Z,20.30
2024-02-28T14:09:13.314Z,19.70
2024-02-28T14:11:46.318Z,20.10
2024-02-28T14:14:18.804Z,20.50
2024-02-28T14:16:50.988Z,20.40
2024-02-28T14:19:23.287Z,18.10
2024-02-28T14:21:55.640Z,17.60
2024-02-28T14:24:28.047Z,16.20
2024-02-28T14:27:00.095Z,16.60
2024-02-28T14:29:32.030Z,15.90
2024-02-28T14:32:04.427Z,15.80
2024-02-28T14:34:36.944Z,14.90
2024-02-28T14:37:09.138Z,15.20
2024-02-28T14:39:41.128Z,13.60
2024-02-28T14:42:13.558Z,14.70
2024-02-28T14:44:45.947Z,14.80
2024-02-28T14:47:18.073Z,16.10
2024-02-28T14:49:50.904Z,15.40
2024-02-28T14:52:23.452Z,14.30
2024-02-28T14:54:56.082Z,13.50
2024-02-28T14:57:28.154Z,15.30
2024-02-28T15:00:00.289Z,14.70
2024-02-28T15:02:32.869Z,15.40
2024-02-28T15:05:06.733Z,14.40
2024-02-28T15:07:40.115Z,14.30
2024-02-28T15:10:15.187Z,15.40
2024-02-28T15:12:47.314Z,14.90
2024-02-28T15:15:19.869Z,16.00
2024-02-28T15:17:52.342Z,16.70
2024-02-28T15:20:24.832Z,14.20
2024-02-28T15:22:57.389Z,15.30
2024-02-28T15:25:29.305Z,14.50
2024-02-28T15:28:01.376Z,14.30
2024-02-28T15:30:33.609Z,15.40
2024-02-28T15:33:06.914Z,15.80
2024-02-28T15:35:41.270Z,15.60
2024-02-28T15:38:14.368Z,14.60
2024-02-28T15:40:46.543Z,14.30
2024-02-28T15:43:18.512Z,16.90
2024-02-28T15:45:50.971Z,15.90
2024-02-28T15:48:23.102Z,16.80
2024-02-28T15:50:56.379Z,17.50
2024-02-28T15:53:28.340Z,16.60
2024-02-28T15:56:00.480Z,14.80
2024-02-28T15:58:32.432Z,14.90
2024-02-28T16:01:04.700Z,15.90
2024-02-28T16:03:38.341Z,17.20
2024-02-28T16:06:11.408Z,17.20
2024-02-28T16:08:45.087Z,15.90
2024-02-28T16:11:17.309Z,14.80
2024-02-28T16:13:49.727Z,15.60
2024-02-28T16:16:21.646Z,16.40
2024-02-28T16:18:53.865Z,17.30
2024-02-28T16:21:26.323Z,17.80
2024-02-28T16:23:58.281Z,17.80
2024-02-28T16:26:30.301Z,16.90
2024-02-28T16:29:02.314Z,17.80
2024-02-28T16:31:34.462Z,15.20
2024-02-28T16:34:06.581Z,17.30
2024-02-28T16:36:38.744Z,18.10
2024-02-28T16:39:10.647Z,17.20
2024-02-28T16:41:42.754Z,16.70
2024-02-28T16:44:14.789Z,17.20
2024-02-28T16:46:46.719Z,15.30
2024-02-28T16:49:19.035Z,15.70
2024-02-28T16:51:51.039Z,16.30
2024-02-28T16:54:23.465Z,16.80
2024-02-28T16:56:55.695Z,17.10
2024-02-28T16:59:27.858Z,16.30
2024-02-28T17:02:00.156Z,15.90
2024-02-28T17:04:34.061Z,15.10
2024-02-28T17:07:06.361Z,15.00
2024-02-28T17:09:38.356Z,15.50
2024-02-28T17:12:10.827Z,16.30
2024-02-28T17:14:43.704Z,18.10
2024-02-28T17:17:16.135Z,15.80
2024-02-28T17:19:49.479Z,15.70
2024-02-28T17:22:21.578Z,15.90
2024-02-28T17:24:53.725Z,15.30
2024-02-28T17:27:26.175Z,17.00
2024-02-28T17:29:58.458Z,19.20
2024-02-28T17:32:30.771Z,18.30
2024-02-28T17:35:05.120Z,17.50
2024-02-28T17:37:37.741Z,16.40
2024-02-28T17:40:12.896Z,16.50
2024-02-28T17:42:45.080Z,15.70
2024-02-28T17:45:18.278Z,17.30
2024-02-28T17:47:50.195Z,18.20
2024-02-28T17:50:25.674Z,18.80
2024-02-28T17:52:57.774Z,17.50
2024-02-28T17:55:30.650Z,16.30
2024-02-28T17:58:02.869Z,17.10
2024-02-28T18:00:35.464Z,17.10
2024-02-28T18:03:08.519Z,17.30
2024-02-28T18:05:40.917Z,16.70
2024-02-28T18:08:13.451Z,16.60
2024-02-28T18:10:45.474Z,17.10
2024-02-28T18:13:19.385Z,17.20
2024-02-28T18:15:51.909Z,16.70
2024-02-28T18:18:24.007Z,17.60
2024-02-28T18:20:56.372Z,16.10
2024-02-28T18:23:34.200Z,16.10
2024-02-28T18:26:09.490Z,15.50
2024-02-28T18:28:42.129Z,15.80
2024-02-28T18:31:17.355Z,16.90
2024-02-28T18:33:49.443Z,16.30
2024-02-28T18:36:23.931Z,16.20
2024-02-28T18:38:56.307Z,15.90
2024-02-28T18:41:28.321Z,14.20
2024-02-28T18:44:00.337Z,15.00
2024-02-28T18:46:32.369Z,15.00
2024-02-28T18:49:04.373Z,15.30
2024-02-28T18:51:36.436Z,15.30
2024-02-28T18:54:08.723Z,15.20
2024-02-28T18:56:40.897Z,17.30
2024-02-28T18:59:12.797Z,14.40
2024-02-28T19:01:47.354Z,15.00
2024-02-28T19:04:20.387Z,15.40
2024-02-28T19:06:52.703Z,14.50
2024-02-28T19:09:25.324Z,14.70
2024-02-28T19:11:57.511Z,13.90
2024-02-28T19:14:29.623Z,15.30
2024-02-28T19:17:02.723Z,16.10
2024-02-28T19:19:34.910Z,15.00
2024-02-28T19:22:07.572Z,14.50
2024-02-28T19:24:39.591Z,15.40
2024-02-28T19:27:11.570Z,13.90
2024-02-28T19:29:43.781Z,14.60
2024-02-28T19:32:16.634Z,14.60
2024-02-28T19:34:48.744Z,14.70
2024-02-28T19:37:21.482Z,13.70
2024-02-28T19:39:57.876Z,13.40
2024-02-28T19:42:29.874Z,13.10
2024-02-28T19:45:01.870Z,13.00
2024-02-28T19:47:34.713Z,13.90
2024-02-28T19:50:08.286Z,13.90
2024-02-28T19:52:41.257Z,14.30
2024-02-28T19:55:13.506Z,14.30
2024-02-28T19:57:46.100Z,13.90
2024-02-28T20:00:19.919Z,13.00
2024-02-28T20:02:52.378Z,14.20
2024-02-28T20:05:24.441Z,13.20
2024-02-28T20:07:56.514Z,15.40
2024-02-28T20:10:28.546Z,15.60
2024-02-28T20:13:02.077Z,14.70
2024-02-28T20:15:34.216Z,15.60
2024-02-28T20:18:07.058Z,14.00
2024-02-28T20:20:39.092Z,15.30
2024-02-28T20:23:11.483Z,16.40
2024-02-28T20:25:43.999Z,16.20
2024-02-28T20:28:18.251Z,14.60
2024-02-28T20:30:52.256Z,15.60
2024-02-28T20:33:26.515Z,15.90
2024-02-28T20:35:58.774Z,15.80
2024-02-28T20:38:31.185Z,16.00
2024-02-28T20:41:03.257Z,17.20
2024-02-28T20:43:35.667Z,17.40
2024-02-28T20:46:08.139Z,15.70
2024-02-28T20:48:42.452Z,16.70
2024-02-28T20:51:14.811Z,15.40
2024-02-28T20:53:54.529Z,17.60
2024-02-28T20:56:27.759Z,20.40
2024-02-28T20:59:02.016Z,19.40
2024-02-28T21:01:34.252Z,18.10
2024-02-28T21:04:08.078Z,19.20
2024-02-28T21:06:40.373Z,17.40
2024-02-28T21:09:12.617Z,19.00
2024-02-28T21:11:44.571Z,19.20
2024-02-28T21:14:17.061Z,18.50
2024-02-28T21:16:49.133Z,18.80
2024-02-28T21:19:21.627Z,17.40
2024-02-28T21:21:53.699Z,18.60
2024-02-28T21:24:25.796Z,18.90
2024-02-28T21:26:57.793Z,19.40
2024-02-28T21:29:29.719Z,19.70
2024-02-28T21:32:01.857Z,18.50
2024-02-28T21:34:33.797Z,17.60
2024-02-28T21:37:06.380Z,18.60
2024-02-28T21:39:38.390Z,19.40
2024-02-28T21:42:10.791Z,19.30
2024-02-28T21:44:42.959Z,19.90
2024-02-28T21:47:15.648Z,19.10
2024-02-28T21:49:47.738Z,18.10
2024-02-28T21:52:19.951Z,18.00
2024-02-28T21:54:52.762Z,19.30
2024-02-28T21:57:24.920Z,17.80
2024-02-28T21:59:56.967Z,18.60
2024-02-28T22:02:29.319Z,18.40
2024-02-28T22:05:01.630Z,19.70
2024-02-28T22:07:34.300Z,18.20
2024-02-28T22:10:08.361Z,17.90
2024-02-28T22:12:40.686Z,18.50
2024-02-28T22:15:14.374Z,19.40
2024-02-28T22:17:46.636Z,18.80
2024-02-28T22:20:19.099Z,17.80
2024-02-28T22:22:51.006Z,15.40
2024-02-28T22:25:23.026Z,14.30
2024-02-28T22:27:55.093Z,13.40
2024-02-28T22:30:27.125Z,14.80
2024-02-28T22:32:59.147Z,15.00
2024-02-28T22:35:31.185Z,13.60
2024-02-28T22:38:03.094Z,13.70
2024-02-28T22:40:35.477Z,12.80
2024-02-28T22:43:07.965Z,12.00
2024-02-28T22:45:41.601Z,12.00
2024-02-28T22:48:14.173Z,12.50
2024-02-28T22:50:46.229Z,11.50
2024-02-28T22:53:18.769Z,11.30
2024-02-28T22:55:50.905Z,10.10
2024-02-28T22:58:22.982Z,10.10
2024-02-28T23:00:55.012Z,10.10
2024-02-28T23:03:27.833Z,11.60
2024-02-28T23:06:01.540Z,12.50
2024-02-28T23:08:34.098Z,11.70
2024-02-28T23:11:06.261Z,10.10
2024-02-28T23:13:40.065Z,10.90
2024-02-28T23:16:12.329Z,10.50
2024-02-28T23:18:44.377Z,10.40
2024-02-28T23:21:16.862Z,10.00
2024-02-28T23:23:48.741Z,11.30
2024-02-28T23:26:20.761Z,11.00
2024-02-28T23:28:52.769Z,10.80
2024-02-28T23:31:24.745Z,10.70
2024-02-28T23:33:56.894Z,10.90
2024-02-28T23:36:29.074Z,11.10
2024-02-28T23:39:01.187Z,10.60
2024-02-28T23:41:34.493Z,10.60
2024-02-28T23:44:06.409Z,10.60
2024-02-28T23:46:38.507Z,9.60
2024-02-28T23:49:10.656Z,10.10
2024-02-28T23:51:45.694Z,9.10
2024-02-28T23:54:18.075Z,10.10
2024-02-28T23:56:50.070Z,9.40
2024-02-28T23:59:22.121Z,10.00
